createdAt,value
2023-02-12T00:00:25.949Z,27.77
2023-02-12T00:03:32.183Z,30.33
2023-02-12T00:06:36.664Z,29.50
2023-02-12T00:09:39.928Z,26.97
2023-02-12T00:12:43.263Z,32.03
2023-02-12T00:15:46.580Z,31.80
2023-02-12T00:18:53.251Z,27.93
2023-02-12T00:21:58.056Z,32.17
2023-02-12T00:25:01.340Z,25.90
2023-02-12T00:28:05.274Z,29.33
2023-02-12T00:31:10.113Z,32.27
2023-02-12T00:34:13.592Z,28.60
2023-02-12T00:37:19.022Z,25.27
2023-02-12T00:40:22.146Z,29.90
2023-02-12T00:43:26.079Z,25.50
2023-02-12T00:46:30.399Z,29.90
2023-02-12T00:49:34.220Z,23.30
2023-02-12T00:52:39.021Z,25.00
2023-02-12T00:55:42.520Z,23.60
2023-02-12T00:58:45.671Z,24.87
2023-02-12T01:01:48.911Z,28.90
2023-02-12T01:04:52.498Z,22.67
2023-02-12T01:07:57.789Z,20.37
2023-02-12T01:11:03.580Z,27.33
2023-02-12T01:14:42.514Z,26.27
2023-02-12T01:17:46.328Z,34.13
2023-02-12T01:20:49.479Z,23.27
2023-02-12T01:23:54.106Z,28.53
2023-02-12T01:26:57.584Z,32.00
2023-02-12T01:30:00.809Z,27.70
2023-02-12T01:33:04.358Z,25.53
2023-02-12T01:36:09.413Z,26.00
2023-02-12T01:39:16.316Z,21.63
2023-02-12T01:42:19.728Z,23.17
2023-02-12T01:45:48.989Z,21.80
2023-02-12T01:48:52.851Z,26.07
2023-02-12T01:52:05.792Z,21.77
2023-02-12T01:55:12.645Z,27.77
2023-02-12T01:58:16.647Z,28.37
2023-02-12T02:01:24.134Z,22.83
2023-02-12T02:04:33.312Z,19.30
2023-02-12T02:07:36.473Z,27.60
2023-02-12T02:10:42.180Z,30.50
2023-02-12T02:14:02.661Z,27.47
2023-02-12T02:17:29.884Z,25.60
2023-02-12T02:21:37.279Z,28.63
2023-02-12T02:25:09.916Z,30.27
2023-02-12T02:28:32.771Z,29.00
2023-02-12T02:31:43.971Z,28.03
2023-02-12T02:34:55.725Z,29.53
2023-02-12T02:38:17.041Z,26.40
2023-02-12T02:41:28.505Z,24.20
2023-02-12T02:44:38.235Z,25.93
2023-02-12T02:47:46.400Z,26.73
2023-02-12T02:50:56.811Z,23.80
2023-02-12T02:54:07.107Z,27.00
2023-02-12T02:57:15.402Z,25.57
2023-02-12T03:00:23.520Z,24.17
2023-02-12T03:03:34.109Z,27.43
2023-02-12T03:06:47.758Z,28.23
2023-02-12T03:09:55.480Z,27.20
2023-02-12T03:13:04.349Z,29.73
2023-02-12T03:16:13.124Z,22.03
2023-02-12T03:19:22.303Z,22.30
2023-02-12T03:22:30.914Z,23.10
2023-02-12T03:25:38.800Z,27.53
2023-02-12T03:28:42.376Z,32.47
2023-02-12T03:32:05.822Z,26.30
2023-02-12T03:35:17.921Z,25.97
2023-02-12T03:38:31.661Z,31.00
2023-02-12T03:41:43.403Z,29.97
2023-02-12T03:44:54.870Z,27.30
2023-02-12T03:48:04.398Z,23.97
2023-02-12T03:51:20.504Z,27.73
2023-02-12T03:54:24.243Z,31.37
2023-02-12T03:57:34.198Z,29.57
2023-02-12T04:00:40.247Z,28.93
2023-02-12T04:03:43.566Z,33.67
2023-02-12T04:06:50.390Z,31.43
2023-02-12T04:09:53.663Z,35.90
2023-02-12T04:13:10.807Z,29.67
2023-02-12T04:16:24.398Z,28.70
2023-02-12T04:19:36.413Z,33.53
2023-02-12T04:22:55.532Z,27.83
2023-02-12T04:26:08.394Z,29.97
2023-02-12T04:29:21.781Z,36.53
2023-02-12T04:32:32.708Z,31.90
2023-02-12T04:35:41.958Z,35.00
2023-02-12T04:38:52.878Z,31.73
2023-02-12T04:42:00.547Z,31.57
2023-02-12T04:45:04.193Z,29.93
2023-02-12T04:48:07.972Z,24.90
2023-02-12T04:51:11.527Z,31.97
2023-02-12T04:54:17.821Z,33.13
2023-02-12T04:57:20.883Z,29.00
2023-02-12T05:00:24.266Z,28.50
2023-02-12T05:03:27.671Z,32.33
2023-02-12T05:06:31.402Z,27.30
2023-02-12T05:09:35.874Z,39.63
2023-02-12T05:12:38.868Z,33.67
2023-02-12T05:15:42.330Z,26.87
2023-02-12T05:18:45.520Z,32.97
2023-02-12T05:21:51.657Z,26.07
2023-02-12T05:24:56.033Z,31.40
2023-02-12T05:27:59.072Z,31.27
2023-02-12T05:31:03.285Z,27.87
2023-02-12T05:34:11.319Z,27.97
2023-02-12T05:37:14.376Z,30.47
2023-02-12T05:40:19.426Z,27.53
2023-02-12T05:43:22.682Z,33.40
2023-02-12T05:46:25.726Z,28.33
2023-02-12T05:49:28.962Z,28.50
2023-02-12T05:52:32.010Z,32.63
2023-02-12T05:55:36.409Z,25.20
2023-02-12T05:58:40.553Z,31.20
2023-02-12T06:01:50.984Z,24.20
2023-02-12T06:04:54.790Z,18.03
2023-02-12T06:08:02.736Z,32.40
2023-02-12T06:11:15.408Z,29.03
2023-02-12T06:14:24.686Z,24.97
2023-02-12T06:17:30.345Z,32.10
2023-02-12T06:20:34.353Z,26.43
2023-02-12T06:23:37.475Z,23.87
2023-02-12T06:26:41.838Z,32.20
2023-02-12T06:29:47.142Z,30.40
2023-02-12T06:32:50.790Z,24.80
2023-02-12T06:35:54.315Z,24.00
2023-02-12T06:38:57.546Z,26.30
2023-02-12T06:42:02.477Z,22.60
2023-02-12T06:45:06.468Z,28.03
2023-02-12T06:48:09.553Z,24.60
2023-02-12T06:51:16.230Z,27.37
2023-02-12T06:54:19.815Z,28.73
2023-02-12T06:57:24.212Z,24.07
2023-02-12T07:00:27.390Z,31.13
2023-02-12T07:03:32.657Z,26.10
2023-02-12T07:06:37.300Z,26.03
2023-02-12T07:09:43.398Z,29.50
2023-02-12T07:12:48.191Z,23.80
2023-02-12T07:15:51.328Z,27.17
2023-02-12T07:18:54.675Z,23.87
2023-02-12T07:21:59.347Z,32.93
2023-02-12T07:25:02.485Z,24.83
2023-02-12T07:28:06.999Z,27.60
2023-02-12T07:31:12.374Z,38.47
2023-02-12T07:34:15.684Z,17.03
2023-02-12T07:37:22.637Z,19.80
2023-02-12T07:40:25.952Z,23.60
2023-02-12T07:43:30.503Z,16.53
2023-02-12T07:46:36.854Z,26.57
2023-02-12T07:49:42.840Z,25.83
2023-02-12T07:52:46.151Z,25.40
2023-02-12T07:55:49.725Z,24.93
2023-02-12T07:58:58.118Z,25.07
2023-02-12T08:02:01.850Z,21.30
2023-02-12T08:05:05.260Z,27.47
2023-02-12T08:08:08.337Z,29.17
2023-02-12T08:11:13.636Z,23.27
2023-02-12T08:14:21.218Z,31.50
2023-02-12T08:17:24.550Z,23.70
2023-02-12T08:20:27.772Z,18.43
2023-02-12T08:23:31.463Z,24.77
2023-02-12T08:26:37.449Z,21.00
2023-02-12T08:29:42.260Z,16.47
2023-02-12T08:32:45.289Z,27.00
2023-02-12T08:35:48.704Z,19.77
2023-02-12T08:38:52.431Z,24.00
2023-02-12T08:41:56.584Z,21.83
2023-02-12T08:45:01.358Z,23.07
2023-02-12T08:48:06.732Z,25.40
2023-02-12T08:51:12.482Z,24.20
2023-02-12T08:54:19.598Z,25.93
2023-02-12T08:57:23.526Z,20.13
2023-02-12T09:00:30.597Z,18.23
2023-02-12T09:03:33.769Z,18.20
2023-02-12T09:06:37.251Z,22.17
2023-02-12T09:09:40.380Z,19.53
2023-02-12T09:12:43.625Z,25.63
2023-02-12T09:15:48.068Z,25.07
2023-02-12T09:18:51.500Z,23.97
2023-02-12T09:21:57.122Z,26.10
2023-02-12T09:25:00.385Z,22.40
2023-02-12T09:28:06.116Z,24.80
2023-02-12T09:31:13.084Z,19.87
2023-02-12T09:34:16.229Z,20.80
2023-02-12T09:37:19.457Z,19.97
2023-02-12T09:40:29.121Z,28.37
2023-02-12T09:43:42.326Z,23.07
2023-02-12T09:46:53.410Z,23.43
2023-02-12T09:50:18.960Z,25.57
2023-02-12T09:53:27.854Z,15.73
2023-02-12T09:56:35.458Z,23.93
2023-02-12T09:59:45.144Z,25.07
2023-02-12T10:02:54.347Z,23.80
2023-02-12T10:06:05.566Z,16.67
2023-02-12T10:09:34.511Z,13.57
2023-02-12T10:12:48.772Z,13.97
2023-02-12T10:16:02.006Z,20.70
2023-02-12T10:19:26.147Z,22.77
2023-02-12T10:22:55.045Z,28.00
2023-02-12T10:26:03.315Z,18.70
2023-02-12T10:29:14.575Z,26.03
2023-02-12T10:32:26.193Z,27.00
2023-02-12T10:35:31.876Z,26.13
2023-02-12T10:38:41.021Z,25.63
2023-02-12T10:41:50.885Z,20.67
2023-02-12T10:44:54.277Z,23.27
2023-02-12T10:48:09.175Z,24.23
2023-02-12T10:51:41.210Z,23.00
2023-02-12T10:54:46.671Z,25.27
2023-02-12T10:57:49.799Z,22.33
2023-02-12T11:00:59.714Z,18.33
2023-02-12T11:04:25.871Z,23.03
2023-02-12T11:07:53.541Z,25.87
2023-02-12T11:10:57.188Z,30.00
2023-02-12T11:14:05.038Z,24.57
2023-02-12T11:17:15.390Z,23.23
2023-02-12T11:20:26.233Z,22.77
2023-02-12T11:23:33.175Z,21.93
2023-02-12T11:26:36.619Z,28.33
2023-02-12T11:29:40.393Z,20.63
2023-02-12T11:32:44.289Z,19.00
2023-02-12T11:35:57.104Z,19.03
2023-02-12T11:39:02.171Z,19.60
2023-02-12T11:42:14.829Z,24.13
2023-02-12T11:45:21.317Z,25.33
2023-02-12T11:48:28.764Z,21.40
2023-02-12T11:51:33.459Z,28.57
2023-02-12T11:54:43.471Z,21.93
2023-02-12T11:57:52.528Z,24.53
2023-02-12T12:01:09.066Z,22.87
2023-02-12T12:04:16.011Z,17.37
2023-02-12T12:07:25.097Z,20.33
2023-02-12T12:10:38.791Z,17.30
2023-02-12T12:15:00.611Z,17.93
2023-02-12T12:18:38.118Z,19.83
2023-02-12T12:21:46.818Z,18.30
2023-02-12T12:24:57.518Z,19.50
2023-02-12T12:28:18.029Z,22.43
2023-02-12T12:31:28.485Z,14.60
2023-02-12T12:34:31.705Z,20.90
2023-02-12T12:37:42.290Z,22.27
2023-02-12T12:41:03.504Z,15.83
2023-02-12T12:44:30.051Z,20.40
2023-02-12T12:47:45.649Z,21.83
2023-02-12T12:51:13.564Z,25.83
2023-02-12T12:54:34.982Z,15.30
2023-02-12T12:57:57.414Z,21.20
2023-02-12T13:01:20.931Z,23.67
2023-02-12T13:04:45.861Z,21.17
2023-02-12T13:07:58.505Z,17.67
2023-02-12T13:11:10.849Z,23.10
2023-02-12T13:14:32.263Z,16.77
2023-02-12T13:17:46.086Z,19.20
2023-02-12T13:20:57.654Z,18.53
2023-02-12T13:24:08.835Z,13.70
2023-02-12T13:27:17.927Z,18.13
2023-02-12T13:30:25.069Z,16.77
2023-02-12T13:33:41.307Z,13.57
2023-02-12T13:36:46.396Z,13.63
2023-02-12T13:39:51.391Z,14.97
2023-02-12T13:43:04.055Z,16.93
2023-02-12T13:46:18.776Z,10.53
2023-02-12T13:49:45.741Z,15.50
2023-02-12T13:52:57.682Z,12.87
2023-02-12T13:56:14.519Z,13.07
2023-02-12T13:59:44.775Z,10.63
2023-02-12T14:02:53.977Z,10.50
2023-02-12T14:06:14.859Z,12.10
2023-02-12T14:09:23.900Z,11.73
2023-02-12T14:12:36.537Z,11.50
2023-02-12T14:15:46.939Z,13.73
2023-02-12T14:18:50.151Z,11.43
2023-02-12T14:21:54.624Z,10.00
2023-02-12T14:24:59.393Z,9.93
2023-02-12T14:28:18.234Z,7.00
2023-02-12T14:31:34.404Z,11.63
2023-02-12T14:34:41.410Z,10.37
2023-02-12T14:37:46.179Z,7.40
2023-02-12T14:40:50.211Z,7.97
2023-02-12T14:44:48.784Z,8.73
2023-02-12T14:47:55.219Z,11.17
2023-02-12T14:51:01.693Z,8.70
2023-02-12T14:54:15.211Z,8.90
2023-02-12T14:57:27.259Z,8.30
2023-02-12T15:00:36.540Z,8.17
2023-02-12T15:03:44.769Z,15.10
2023-02-12T15:07:00.661Z,12.20
2023-02-12T15:10:23.253Z,9.53
2023-02-12T15:13:34.216Z,10.17
2023-02-12T15:16:48.035Z,9.60
2023-02-12T15:19:59.874Z,7.50
2023-02-12T15:23:05.017Z,9.60
2023-02-12T15:26:16.190Z,8.30
2023-02-12T15:29:27.485Z,12.87
2023-02-12T15:32:38.921Z,9.53
2023-02-12T15:35:45.863Z,7.63
2023-02-12T15:38:53.331Z,9.00
2023-02-12T15:41:58.165Z,12.73
2023-02-12T15:45:19.256Z,14.20
2023-02-12T15:48:24.585Z,10.53
2023-02-12T15:51:32.687Z,10.13
2023-02-12T15:54:36.527Z,15.83
2023-02-12T15:57:41.792Z,10.27
2023-02-12T16:00:47.658Z,12.33
2023-02-12T16:03:52.813Z,14.07
2023-02-12T16:06:56.267Z,12.23
2023-02-12T16:09:59.744Z,11.00
2023-02-12T16:13:05.117Z,11.17
2023-02-12T16:16:18.790Z,16.77
2023-02-12T16:19:25.102Z,13.83
2023-02-12T16:22:33.027Z,12.53
2023-02-12T16:25:36.171Z,13.77
2023-02-12T16:28:40.569Z,11.60
2023-02-12T16:31:58.926Z,12.67
2023-02-12T16:35:07.317Z,14.50
2023-02-12T16:38:44.039Z,14.27
2023-02-12T16:41:56.514Z,10.63
2023-02-12T16:45:01.548Z,11.53
2023-02-12T16:48:11.410Z,10.60
2023-02-12T16:51:27.386Z,12.43
2023-02-12T16:54:33.389Z,10.90
2023-02-12T16:57:39.403Z,9.37
2023-02-12T17:00:44.524Z,8.07
2023-02-12T17:03:50.607Z,9.13
2023-02-12T17:06:57.956Z,9.37
2023-02-12T17:10:01.871Z,10.37
2023-02-12T17:13:05.302Z,10.43
2023-02-12T17:16:12.751Z,12.03
2023-02-12T17:19:17.497Z,11.53
2023-02-12T17:22:23.590Z,7.17
2023-02-12T17:25:26.708Z,8.80
2023-02-12T17:28:29.922Z,8.33
2023-02-12T17:31:35.040Z,7.47
2023-02-12T17:34:48.032Z,12.70
2023-02-12T17:37:51.798Z,11.33
2023-02-12T17:40:55.234Z,11.67
2023-02-12T17:43:58.962Z,12.03
2023-02-12T17:47:03.739Z,11.30
2023-02-12T17:50:09.854Z,13.17
2023-02-12T17:53:13.467Z,10.33
2023-02-12T17:56:18.589Z,10.13
2023-02-12T17:59:21.979Z,8.90
2023-02-12T18:02:26.880Z,13.03
2023-02-12T18:05:30.144Z,14.27
2023-02-12T18:08:33.375Z,11.73
2023-02-12T18:11:38.492Z,11.73
2023-02-12T18:14:41.788Z,13.80
2023-02-12T18:17:46.439Z,12.03
2023-02-12T18:20:49.659Z,15.67
2023-02-12T18:23:54.921Z,11.70
2023-02-12T18:26:58.065Z,13.03
2023-02-12T18:30:01.153Z,15.40
2023-02-12T18:33:06.270Z,14.57
2023-02-12T18:36:16.292Z,15.87
2023-02-12T18:39:19.454Z,14.50
2023-02-12T18:42:25.075Z,14.23
2023-02-12T18:45:30.650Z,15.93
2023-02-12T18:48:35.842Z,14.00
2023-02-12T18:51:41.085Z,16.60
2023-02-12T18:54:45.435Z,13.23
2023-02-12T18:57:52.976Z,17.87
2023-02-12T19:00:56.526Z,16.63
2023-02-12T19:04:04.625Z,19.23
2023-02-12T19:07:07.833Z,15.70
2023-02-12T19:10:12.282Z,21.70
2023-02-12T19:13:15.885Z,15.60
2023-02-12T19:16:21.491Z,13.87
2023-02-12T19:19:26.854Z,16.13
2023-02-12T19:22:30.338Z,16.10
2023-02-12T19:25:39.691Z,15.13
2023-02-12T19:28:43.355Z,18.63
2023-02-12T19:31:47.412Z,16.83
2023-02-12T19:34:53.090Z,18.93
2023-02-12T19:37:56.162Z,15.53
2023-02-12T19:41:04.475Z,15.20
2023-02-12T19:44:11.588Z,15.57
2023-02-12T19:47:14.867Z,16.73
2023-02-12T19:50:19.616Z,16.63
2023-02-12T19:53:29.607Z,16.60
2023-02-12T19:56:35.202Z,19.70
2023-02-12T19:59:47.791Z,19.43
2023-02-12T20:02:51.146Z,17.77
2023-02-12T20:06:02.510Z,16.00
2023-02-12T20:09:12.423Z,20.23
2023-02-12T20:12:15.536Z,18.80
2023-02-12T20:15:18.868Z,18.77
2023-02-12T20:18:23.146Z,18.37
2023-02-12T20:21:29.704Z,16.93
2023-02-12T20:24:35.080Z,16.73
2023-02-12T20:27:38.389Z,16.30
2023-02-12T20:30:42.515Z,17.27
2023-02-12T20:33:56.393Z,17.63
2023-02-12T20:37:03.360Z,17.00
2023-02-12T20:40:08.609Z,15.93
2023-02-12T20:43:11.919Z,20.20
2023-02-12T20:46:20.091Z,21.47
2023-02-12T20:49:23.440Z,18.83
2023-02-12T20:52:28.173Z,21.10
2023-02-12T20:55:31.631Z,21.30
2023-02-12T20:58:35.316Z,21.77
2023-02-12T21:01:41.557Z,22.80
2023-02-12T21:04:44.758Z,20.37
2023-02-12T21:07:51.183Z,20.40
2023-02-12T21:11:35.139Z,20.73
2023-02-12T21:14:39.002Z,24.27
2023-02-12T21:17:42.148Z,28.93
2023-02-12T21:20:45.316Z,30.63
2023-02-12T21:23:51.115Z,33.77
2023-02-12T21:26:56.345Z,32.57
2023-02-12T21:30:06.626Z,37.53
2023-02-12T21:33:09.726Z,34.00
2023-02-12T21:36:15.230Z,36.47
2023-02-12T21:39:26.095Z,37.87
2023-02-12T21:42:30.883Z,38.83
2023-02-12T21:45:34.204Z,42.00
2023-02-12T21:48:39.064Z,47.40
2023-02-12T21:51:45.089Z,43.17
2023-02-12T21:54:49.483Z,49.10
2023-02-12T21:57:52.605Z,40.17
2023-02-12T22:00:56.186Z,39.70
2023-02-12T22:04:01.616Z,49.77
2023-02-12T22:07:04.669Z,41.87
2023-02-12T22:10:10.685Z,42.33
2023-02-12T22:13:13.903Z,50.83
2023-02-12T22:16:19.749Z,51.67
2023-02-12T22:19:22.828Z,48.53
2023-02-12T22:22:26.003Z,51.53
2023-02-12T22:25:30.405Z,47.97
2023-02-12T22:28:34.038Z,49.63
2023-02-12T22:31:39.779Z,57.50
2023-02-12T22:34:43.688Z,56.67
2023-02-12T22:37:46.750Z,58.37
2023-02-12T22:40:54.399Z,50.87
2023-02-12T22:44:00.099Z,53.47
2023-02-12T22:47:04.289Z,53.20
2023-02-12T22:50:08.823Z,59.03
2023-02-12T22:53:11.961Z,62.00
2023-02-12T22:56:17.072Z,57.80
2023-02-12T22:59:20.650Z,59.17
2023-02-12T23:02:24.179Z,61.57
2023-02-12T23:05:27.706Z,61.70
2023-02-12T23:08:32.060Z,58.30
2023-02-12T23:11:36.459Z,53.77
2023-02-12T23:14:39.732Z,60.33
2023-02-12T23:17:42.996Z,57.00
2023-02-12T23:20:46.169Z,57.47
2023-02-12T23:23:49.249Z,57.37
2023-02-12T23:26:54.282Z,63.27
2023-02-12T23:29:57.415Z,59.20
2023-02-12T23:33:00.699Z,54.63
2023-02-12T23:36:03.778Z,52.03
2023-02-12T23:39:07.032Z,57.73
2023-02-12T23:42:11.528Z,54.77
2023-02-12T23:45:15.150Z,45.97
2023-02-12T23:48:18.550Z,45.20
2023-02-12T23:51:21.741Z,45.57
2023-02-12T23:54:25.059Z,42.23
2023-02-12T23:57:29.869Z,43.17
